F/V Le Belier — FOUS — position and weather

sailwx.info

Track history (hours):
 
Tides and Currents Weather Stations Pressure Air Temp Water Temp Dewpoint Dewpoint Depression Visibility Wind Speed Wind Dir Waves Ship Positions

F/V Le Belier

Last reported at 2017-Sep-21 09:04 UTC. Time now 2017-Sep-23 07:45 UTC.
Position N 46°31' W 003°11'.

Length 16 m.

Type: Fishing. MMSI: 227145200.

Date/timePositionNaut miles runAvg speedWind from/ knotsBaromVisibWave heightAir tempDewpointWater temp
2017-Sep-21 09:04N 46°31' W 003°11'0 4.0
2017-Sep-21 09:00N 46°31' W 003°11'1 2.9
2017-Sep-21 08:30N 46°30' W 003°09'2 3.9
2017-Sep-21 08:00N 46°29' W 003°07'2 3.1
2017-Sep-21 07:30N 46°30' W 003°07'2 3.8
2017-Sep-21 06:51N 46°33' W 003°07'2 3.8
2017-Sep-21 06:24N 46°34' W 003°08'2 3.9
2017-Sep-21 06:00N 46°36' W 003°09'2 3.9
2017-Sep-21 05:27N 46°38' W 003°10'4 3.5
2017-Sep-21 04:10N 46°40' W 003°16'2 3.9
2017-Sep-21 03:42N 46°41' W 003°18'1 4.0
2017-Sep-21 03:20N 46°41' W 003°20'2 4.0
2017-Sep-21 02:55N 46°42' W 003°22'3 3.8
2017-Sep-21 02:13N 46°44' W 003°25'1 3.5
2017-Sep-21 01:53N 46°45' W 003°25'2 3.4
2017-Sep-21 01:18N 46°47' W 003°27'8 0.7
2017-Sep-20 12:50N 46°39' W 003°24'1 3.5
2017-Sep-20 12:30N 46°40' W 003°24'2 3.5
2017-Sep-20 12:00N 46°41' W 003°25'7 2.6
2017-Sep-20 09:16N 46°41' W 003°15'13 2.4
2017-Sep-20 03:42N 46°49' W 003°30'2 4.1
2017-Sep-20 03:14N 46°51' W 003°32'1 4.1
2017-Sep-20 02:59N 46°52' W 003°32'41 1.8
2017-Sep-19 04:40N 47°27' W 004°03'2 8.2
2017-Sep-19 04:26N 47°28' W 004°00'3 8.2
2017-Sep-19 04:00N 47°30' W 003°56'4 8.1
2017-Sep-19 03:30N 47°32' W 003°51'4 8.0
2017-Sep-19 03:00N 47°34' W 003°45'4 8.1
2017-Sep-19 02:30N 47°36' W 003°40'4 7.9
2017-Sep-19 02:00N 47°38' W 003°35'4 7.6
2017-Sep-19 01:30N 47°40' W 003°30'4 7.3
2017-Sep-19 01:00N 47°41' W 003°25'3 6.3
2017-Sep-19 00:30N 47°43' W 003°22'0 0.9
2017-Sep-19 00:00N 47°44' W 003°22'0 0.0
2017-Sep-18 23:30N 47°44' W 003°22'0 0.0
2017-Sep-18 23:00N 47°44' W 003°22'0 0.0
2017-Sep-18 22:30N 47°44' W 003°22'0 0.0
2017-Sep-18 22:00N 47°44' W 003°22'0 0.0
2017-Sep-18 21:30N 47°44' W 003°22'0 0.0
2017-Sep-18 21:00N 47°44' W 003°22'0 0.0
2017-Sep-18 20:30N 47°44' W 003°22'0 0.4
2017-Sep-18 20:00N 47°44' W 003°22'4 8.1
2017-Sep-18 19:30N 47°39' W 003°22'4 8.5
2017-Sep-18 19:00N 47°35' W 003°21'4 8.3
2017-Sep-18 18:30N 47°31' W 003°21'4 8.4
2017-Sep-18 18:00N 47°27' W 003°21'4 7.8
2017-Sep-18 17:30N 47°23' W 003°21'4 7.6
2017-Sep-18 17:00N 47°19' W 003°20'4 7.8
2017-Sep-18 16:30N 47°15' W 003°20'4 7.7
2017-Sep-18 15:59N 47°11' W 003°20'  
2017-Sep-14 12:10N 47°12' W 003°25'0 2.8
2017-Sep-14 12:00N 47°12' W 003°25'3 6.6
2017-Sep-14 11:30N 47°15' W 003°24'4 7.4
2017-Sep-14 11:00N 47°19' W 003°24'4 7.5
2017-Sep-14 10:30N 47°23' W 003°23'4 7.3
2017-Sep-14 10:00N 47°26' W 003°23'4 7.3
2017-Sep-14 09:30N 47°30' W 003°22'4 7.8
2017-Sep-14 09:00N 47°34' W 003°22'4 7.8
2017-Sep-14 08:30N 47°38' W 003°22'4 7.8
2017-Sep-14 08:00N 47°42' W 003°22'2 4.2
2017-Sep-14 07:30N 47°44' W 003°22'0 0.0
2017-Sep-14 07:00N 47°44' W 003°22'0 0.2
2017-Sep-14 06:30N 47°44' W 003°22'0 0.2
2017-Sep-14 06:00N 47°44' W 003°22'0 0.0
2017-Sep-14 05:30N 47°44' W 003°22'0 0.0
2017-Sep-12 09:39N 47°44' W 003°22'0 0.0
2017-Sep-12 09:30N 47°44' W 003°22'0 0.0
2017-Sep-12 09:00N 47°44' W 003°22'0 0.2
2017-Sep-12 08:30N 47°44' W 003°22'0 0.0
2017-Sep-12 08:00N 47°44' W 003°22'0 0.0
2017-Sep-12 07:30N 47°44' W 003°22'0 0.0
2017-Sep-12 07:00N 47°44' W 003°22'0 0.0
2017-Sep-12 06:30N 47°44' W 003°22'0 0.1
2017-Sep-12 06:00N 47°44' W 003°22'0 0.0
2017-Sep-11 10:13N 47°44' W 003°22'0 0.0
2017-Sep-11 10:00N 47°44' W 003°22'0 0.0
2017-Sep-11 09:30N 47°44' W 003°22'  
Track history (hours):
 
Tides and Currents Weather Stations Pressure Air Temp Water Temp Dewpoint Dewpoint Depression Visibility Wind Speed Wind Dir Waves Ship Positions

F/V Le Belier

Last reported at 2017-Sep-21 09:04 UTC. Time now 2017-Sep-23 07:45 UTC.
Position N 46°31' W 003°11'.

Length 16 m.

Type: Fishing. MMSI: 227145200.

Date/timePositionNaut miles runAvg speedWind from/ knotsBaromVisibWave heightAir tempDewpointWater temp
2017-Sep-21 09:04N 46°31' W 003°11'0 4.0
2017-Sep-21 09:00N 46°31' W 003°11'1 2.9
2017-Sep-21 08:30N 46°30' W 003°09'2 3.9
2017-Sep-21 08:00N 46°29' W 003°07'2 3.1
2017-Sep-21 07:30N 46°30' W 003°07'2 3.8
2017-Sep-21 06:51N 46°33' W 003°07'2 3.8
2017-Sep-21 06:24N 46°34' W 003°08'2 3.9
2017-Sep-21 06:00N 46°36' W 003°09'2 3.9
2017-Sep-21 05:27N 46°38' W 003°10'4 3.5
2017-Sep-21 04:10N 46°40' W 003°16'2 3.9
2017-Sep-21 03:42N 46°41' W 003°18'1 4.0
2017-Sep-21 03:20N 46°41' W 003°20'2 4.0
2017-Sep-21 02:55N 46°42' W 003°22'3 3.8
2017-Sep-21 02:13N 46°44' W 003°25'1 3.5
2017-Sep-21 01:53N 46°45' W 003°25'2 3.4
2017-Sep-21 01:18N 46°47' W 003°27'8 0.7
2017-Sep-20 12:50N 46°39' W 003°24'1 3.5
2017-Sep-20 12:30N 46°40' W 003°24'2 3.5
2017-Sep-20 12:00N 46°41' W 003°25'7 2.6
2017-Sep-20 09:16N 46°41' W 003°15'13 2.4
2017-Sep-20 03:42N 46°49' W 003°30'2 4.1
2017-Sep-20 03:14N 46°51' W 003°32'1 4.1
2017-Sep-20 02:59N 46°52' W 003°32'41 1.8
2017-Sep-19 04:40N 47°27' W 004°03'2 8.2
2017-Sep-19 04:26N 47°28' W 004°00'3 8.2
2017-Sep-19 04:00N 47°30' W 003°56'4 8.1
2017-Sep-19 03:30N 47°32' W 003°51'4 8.0
2017-Sep-19 03:00N 47°34' W 003°45'4 8.1
2017-Sep-19 02:30N 47°36' W 003°40'4 7.9
2017-Sep-19 02:00N 47°38' W 003°35'4 7.6
2017-Sep-19 01:30N 47°40' W 003°30'4 7.3
2017-Sep-19 01:00N 47°41' W 003°25'3 6.3
2017-Sep-19 00:30N 47°43' W 003°22'0 0.9
2017-Sep-19 00:00N 47°44' W 003°22'0 0.0
2017-Sep-18 23:30N 47°44' W 003°22'0 0.0
2017-Sep-18 23:00N 47°44' W 003°22'0 0.0
2017-Sep-18 22:30N 47°44' W 003°22'0 0.0
2017-Sep-18 22:00N 47°44' W 003°22'0 0.0
2017-Sep-18 21:30N 47°44' W 003°22'0 0.0
2017-Sep-18 21:00N 47°44' W 003°22'0 0.0
2017-Sep-18 20:30N 47°44' W 003°22'0 0.4
2017-Sep-18 20:00N 47°44' W 003°22'4 8.1
2017-Sep-18 19:30N 47°39' W 003°22'4 8.5
2017-Sep-18 19:00N 47°35' W 003°21'4 8.3
2017-Sep-18 18:30N 47°31' W 003°21'4 8.4
2017-Sep-18 18:00N 47°27' W 003°21'4 7.8
2017-Sep-18 17:30N 47°23' W 003°21'4 7.6
2017-Sep-18 17:00N 47°19' W 003°20'4 7.8
2017-Sep-18 16:30N 47°15' W 003°20'4 7.7
2017-Sep-18 15:59N 47°11' W 003°20'  
2017-Sep-14 12:10N 47°12' W 003°25'0 2.8
2017-Sep-14 12:00N 47°12' W 003°25'3 6.6
2017-Sep-14 11:30N 47°15' W 003°24'4 7.4
2017-Sep-14 11:00N 47°19' W 003°24'4 7.5
2017-Sep-14 10:30N 47°23' W 003°23'4 7.3
2017-Sep-14 10:00N 47°26' W 003°23'4 7.3
2017-Sep-14 09:30N 47°30' W 003°22'4 7.8
2017-Sep-14 09:00N 47°34' W 003°22'4 7.8
2017-Sep-14 08:30N 47°38' W 003°22'4 7.8
2017-Sep-14 08:00N 47°42' W 003°22'2 4.2
2017-Sep-14 07:30N 47°44' W 003°22'0 0.0
2017-Sep-14 07:00N 47°44' W 003°22'0 0.2
2017-Sep-14 06:30N 47°44' W 003°22'0 0.2
2017-Sep-14 06:00N 47°44' W 003°22'0 0.0
2017-Sep-14 05:30N 47°44' W 003°22'0 0.0
2017-Sep-12 09:39N 47°44' W 003°22'0 0.0
2017-Sep-12 09:30N 47°44' W 003°22'0 0.0
2017-Sep-12 09:00N 47°44' W 003°22'0 0.2
2017-Sep-12 08:30N 47°44' W 003°22'0 0.0
2017-Sep-12 08:00N 47°44' W 003°22'0 0.0
2017-Sep-12 07:30N 47°44' W 003°22'0 0.0
2017-Sep-12 07:00N 47°44' W 003°22'0 0.0
2017-Sep-12 06:30N 47°44' W 003°22'0 0.1
2017-Sep-12 06:00N 47°44' W 003°22'0 0.0
2017-Sep-11 10:13N 47°44' W 003°22'0 0.0
2017-Sep-11 10:00N 47°44' W 003°22'0 0.0
2017-Sep-11 09:30N 47°44' W 003°22'  

Dump ship's entire track history